Time;durP1;ratioP1;P1;durP2;ratioP2;P2;SDS_P1;SDS_P2;PMS_P1;PMS_P2;Temp;Humidity;BMP_temperature;BMP_pressure;BME280_temperature;BME280_humidity;BME280_pressure;Samples;Min_cycle;Max_cycle;Signal;HPM_P1;HPM_P2
2024/01/13 00:00:56;;;;;;;15.80;10.97;;;;;;;2.92;53.34;94929.31;5030259;28;20224;-66
2024/01/13 00:03:23;;;;;;;17.37;11.80;;;;;;;3.50;53.41;95022.91;5030267;28;20207;-65
2024/01/13 00:05:51;;;;;;;17.43;11.10;;;;;;;3.48;53.29;95019.63;5030046;28;20187;-62
2024/01/13 00:08:18;;;;;;;17.80;11.10;;;;;;;3.51;53.04;95022.00;5030256;28;20215;-66
2024/01/13 00:10:45;;;;;;;18.17;11.87;;;;;;;3.51;53.25;95016.94;5030148;28;20729;-66
2024/01/13 00:13:12;;;;;;;17.43;11.37;;;;;;;3.48;53.01;95012.03;5030654;28;20246;-65
2024/01/13 00:15:39;;;;;;;17.30;10.80;;;;;;;3.48;53.17;95001.94;5030274;28;20192;-66
2024/01/13 00:18:06;;;;;;;18.40;10.77;;;;;;;3.51;53.18;95011.06;5030399;28;20227;-66
2024/01/13 00:20:33;;;;;;;18.40;11.27;;;;;;;3.43;53.03;94993.81;5030246;28;20188;-62
2024/01/13 00:23:01;;;;;;;15.37;9.67;;;;;;;3.45;53.14;94996.22;5030418;28;20663;-63
2024/01/13 00:25:28;;;;;;;16.33;11.13;;;;;;;3.39;53.05;94984.75;5030339;28;20184;-64
2024/01/13 00:27:54;;;;;;;21.00;11.53;;;;;;;3.51;52.83;95008.53;5030660;28;20230;-61
2024/01/13 00:30:21;;;;;;;19.17;10.60;;;;;;;3.50;52.94;95006.91;5030749;28;20184;-64
2024/01/13 00:32:48;;;;;;;16.83;9.77;;;;;;;3.53;52.81;95005.00;5029740;28;20655;-67
2024/01/13 00:35:15;;;;;;;18.60;11.30;;;;;;;3.52;52.85;95010.97;5030267;28;20667;-65
2024/01/13 00:37:42;;;;;;;15.53;9.83;;;;;;;3.13;52.56;94943.28;5029673;28;20195;-66
2024/01/13 00:40:12;;;;;;;18.70;10.57;;;;;;;3.53;52.58;95001.66;5030236;28;20355;-64
2024/01/13 00:42:39;;;;;;;16.60;10.93;;;;;;;3.52;52.69;95003.38;5030229;28;20187;-63
2024/01/13 00:45:06;;;;;;;20.80;11.53;;;;;;;3.48;52.45;95007.00;5029925;28;20194;-65
2024/01/13 00:47:33;;;;;;;18.47;10.80;;;;;;;3.52;52.56;95002.56;5029694;28;20235;-64
2024/01/13 00:50:00;;;;;;;17.13;10.73;;;;;;;3.53;52.52;95001.66;5030306;28;20245;-62
2024/01/13 00:52:27;;;;;;;15.53;9.40;;;;;;;3.53;52.41;95001.66;5029511;28;20654;-62
2024/01/13 00:54:54;;;;;;;14.90;9.83;;;;;;;3.30;52.51;94959.22;5029662;28;20200;-62
2024/01/13 00:57:22;;;;;;;18.33;10.47;;;;;;;3.53;52.44;94991.56;5029697;28;20276;-61
2024/01/13 00:59:49;;;;;;;17.30;10.90;;;;;;;3.52;52.45;94993.28;5030003;28;20250;-64
2024/01/13 01:02:16;;;;;;;16.10;10.53;;;;;;;3.52;52.36;95000.06;5029403;28;20214;-64
2024/01/13 01:04:42;;;;;;;15.13;10.10;;;;;;;3.53;52.45;95004.19;5029369;28;20202;-66
2024/01/13 01:07:09;;;;;;;17.30;10.57;;;;;;;3.53;52.37;94991.56;5029512;28;20219;-63
2024/01/13 01:09:36;;;;;;;16.03;10.30;;;;;;;3.53;52.37;94996.63;5029080;28;20187;-65
2024/01/13 01:12:03;;;;;;;17.93;10.60;;;;;;;3.52;52.46;94995.00;5029505;28;20191;-64
2024/01/13 01:14:32;;;;;;;17.33;10.80;;;;;;;3.53;52.40;94989.84;5029827;28;20180;-63
2024/01/13 01:16:58;;;;;;;15.17;10.10;;;;;;;3.53;52.42;94984.78;5030188;28;20195;-65
2024/01/13 01:19:25;;;;;;;15.50;9.97;;;;;;;3.54;52.54;94975.50;5038353;28;20196;-62
2024/01/13 01:21:52;;;;;;;18.23;10.13;;;;;;;3.54;52.43;94975.50;5033855;28;20623;-63
2024/01/13 01:24:19;;;;;;;16.60;10.83;;;;;;;3.56;52.48;94980.47;5034063;28;20179;-66
2024/01/13 01:26:46;;;;;;;17.70;11.03;;;;;;;3.56;52.35;94976.22;5033905;28;20571;-63
2024/01/13 01:29:12;;;;;;;17.37;11.07;;;;;;;3.55;52.53;94974.59;5033761;28;20176;-65
2024/01/13 01:31:41;;;;;;;19.23;11.20;;;;;;;3.20;52.34;94913.44;5033697;28;20198;-66
2024/01/13 01:34:07;;;;;;;18.00;11.13;;;;;;;3.56;52.30;94963.56;5032918;28;20196;-64
2024/01/13 01:36:34;;;;;;;14.50;10.00;;;;;;;3.57;52.42;94964.38;5033388;28;20191;-64
2024/01/13 01:39:01;;;;;;;16.83;11.00;;;;;;;3.58;52.30;94958.41;5033589;28;20195;-65
2024/01/13 01:41:28;;;;;;;18.97;10.57;;;;;;;3.56;52.34;94963.56;5033035;28;20195;-64
2024/01/13 01:43:54;;;;;;;17.20;10.40;;;;;;;3.57;52.43;94964.38;5033210;28;20200;-66
2024/01/13 01:46:24;;;;;;;18.90;11.20;;;;;;;3.24;52.34;94903.06;5033083;28;20192;-66
2024/01/13 01:48:57;;;;;;;15.97;10.47;;;;;;;3.58;52.31;94960.94;5033654;28;20625;-66
2024/01/13 01:51:25;;;;;;;14.40;9.63;;;;;;;3.51;52.37;94950.41;5032974;28;20187;-67
2024/01/13 01:53:52;;;;;;;15.60;10.27;;;;;;;3.58;52.38;94968.53;5032387;28;20218;-66
2024/01/13 01:56:22;;;;;;;19.10;11.20;;;;;;;3.42;52.38;94954.25;5033288;28;20183;-67
2024/01/13 01:58:51;;;;;;;16.37;10.30;;;;;;;3.59;52.29;94977.78;5032890;28;20184;-67
2024/01/13 02:01:19;;;;;;;18.10;11.17;;;;;;;3.28;52.56;94918.84;5032630;28;20207;-68
2024/01/13 02:03:47;;;;;;;19.90;10.77;;;;;;;3.60;52.41;94972.63;5032813;28;20196;-65
2024/01/13 02:06:15;;;;;;;16.87;10.97;;;;;;;3.60;52.41;94970.09;5032922;28;20191;-65
2024/01/13 02:08:42;;;;;;;21.00;11.90;;;;;;;3.59;52.53;94965.13;5033135;28;20224;-64
2024/01/13 02:11:10;;;;;;;20.20;11.53;;;;;;;3.48;52.43;94945.50;5032355;28;20272;-65
2024/01/13 02:13:36;;;;;;;18.83;11.73;;;;;;;3.53;52.42;94954.44;5032640;28;20206;-67
2024/01/13 02:16:05;;;;;;;17.07;11.03;;;;;;;3.56;52.35;94957.72;5032768;28;20188;-67
2024/01/13 02:18:32;;;;;;;19.23;10.63;;;;;;;3.59;52.39;94972.72;5032893;28;20188;-65
2024/01/13 02:20:58;;;;;;;16.97;11.60;;;;;;;3.58;52.65;94964.28;5032459;28;20180;-65
2024/01/13 02:23:27;;;;;;;16.87;11.40;;;;;;;3.52;52.61;94946.97;5033069;28;20200;-67
2024/01/13 02:25:53;;;;;;;20.40;11.60;;;;;;;3.58;52.50;94949.13;5032769;28;20717;-66
2024/01/13 02:28:20;;;;;;;18.47;12.40;;;;;;;3.53;52.50;94935.94;5032189;28;20223;-64
2024/01/13 02:30:47;;;;;;;19.47;11.33;;;;;;;3.60;52.57;94946.53;5032573;28;20184;-62
2024/01/13 02:33:14;;;;;;;18.90;10.67;;;;;;;3.60;52.65;94941.47;5032066;28;20180;-66
2024/01/13 02:35:40;;;;;;;19.23;11.30;;;;;;;3.61;52.66;94935.50;5032464;28;20184;-66
2024/01/13 02:38:07;;;;;;;18.00;10.67;;;;;;;3.61;52.55;94943.88;5032109;28;20198;-66
2024/01/13 02:40:35;;;;;;;19.87;12.33;;;;;;;3.61;52.53;94943.88;5032849;28;20188;-65
2024/01/13 02:43:02;;;;;;;18.13;11.27;;;;;;;3.62;52.56;94935.41;5032366;28;20852;-65
2024/01/13 02:45:29;;;;;;;19.23;11.97;;;;;;;3.61;52.60;94927.91;5032454;28;20618;-65
2024/01/13 02:48:01;;;;;;;16.70;11.27;;;;;;;3.65;52.60;94931.88;5032445;28;20298;-66
2024/01/13 02:50:28;;;;;;;18.50;11.40;;;;;;;3.64;52.56;94933.59;5032065;28;20187;-64
2024/01/13 02:52:55;;;;;;;19.83;11.30;;;;;;;3.61;52.54;94932.97;5031752;28;20257;-65
2024/01/13 02:55:21;;;;;;;18.83;11.07;;;;;;;3.35;52.71;94894.84;5032233;28;20735;-66
2024/01/13 02:57:50;;;;;;;19.33;11.70;;;;;;;3.63;52.73;94941.28;5031652;28;20570;-64
2024/01/13 03:00:18;;;;;;;21.37;12.27;;;;;;;3.64;52.62;94937.84;5032312;28;20315;-66
2024/01/13 03:02:45;;;;;;;17.97;10.90;;;;;;;3.65;52.71;94936.94;5031689;28;20198;-62
2024/01/13 03:05:11;;;;;;;21.00;12.83;;;;;;;3.65;52.53;94939.47;5031708;28;20544;-64
2024/01/13 03:07:38;;;;;;;18.83;12.13;;;;;;;3.59;52.62;94938.13;5031594;28;20223;-63
2024/01/13 03:10:06;;;;;;;19.33;11.63;;;;;;;3.65;52.63;94952.94;5031466;28;20191;-66
2024/01/13 03:12:33;;;;;;;18.67;12.30;;;;;;;3.65;52.52;94957.97;5031833;28;20184;-64
2024/01/13 03:15:03;;;;;;;21.73;11.90;;;;;;;3.66;52.59;94967.19;5031166;28;20242;-64
2024/01/13 03:17:29;;;;;;;18.97;11.70;;;;;;;3.62;52.67;94959.88;5031452;28;20207;-63
2024/01/13 03:19:56;;;;;;;18.80;12.17;;;;;;;3.66;52.59;94971.44;5031798;28;20187;-67
2024/01/13 03:22:23;;;;;;;19.53;11.50;;;;;;;3.65;52.67;94967.28;5031624;28;20207;-65
2024/01/13 03:24:50;;;;;;;20.93;12.63;;;;;;;3.61;52.69;94965.84;5030876;28;20189;-65
2024/01/13 03:27:17;;;;;;;17.40;11.10;;;;;;;3.64;52.70;94970.72;5031362;28;20188;-66
2024/01/13 03:29:43;;;;;;;20.53;12.40;;;;;;;3.64;52.78;94978.31;5031050;28;20298;-66
2024/01/13 03:32:12;;;;;;;17.00;11.17;;;;;;;3.64;52.73;94973.25;5031534;28;20184;-65
2024/01/13 03:34:38;;;;;;;19.07;11.63;;;;;;;3.61;52.83;94970.91;5030968;28;20195;-63
2024/01/13 03:37:05;;;;;;;18.57;11.27;;;;;;;3.54;52.35;94962.88;5031481;28;20744;-64
2024/01/13 03:39:32;;;;;;;20.17;12.23;;;;;;;3.63;52.95;94981.75;5030929;28;20200;-64
2024/01/13 03:41:59;;;;;;;17.80;11.57;;;;;;;3.37;52.76;94932.66;5031022;28;20198;-63
2024/01/13 03:44:26;;;;;;;21.80;12.10;;;;;;;3.62;52.84;94973.31;5031259;28;20184;-65
2024/01/13 03:46:53;;;;;;;19.80;12.40;;;;;;;3.61;52.73;94960.78;5031041;28;20188;-66
2024/01/13 03:49:21;;;;;;;21.93;12.43;;;;;;;3.54;52.76;94952.75;5031394;28;20227;-66
2024/01/13 03:51:48;;;;;;;18.73;11.63;;;;;;;3.59;52.69;94955.81;5032889;28;20199;-63
2024/01/13 03:54:15;;;;;;;19.83;12.83;;;;;;;3.59;52.68;94947.44;5043697;28;20195;-67
2024/01/13 03:56:42;;;;;;;23.10;13.40;;;;;;;3.57;52.72;94949.22;5032038;28;20286;-64
2024/01/13 03:59:10;;;;;;;20.27;12.63;;;;;;;3.55;52.72;94948.50;5030774;28;20269;-65
2024/01/13 04:01:37;;;;;;;19.23;12.83;;;;;;;3.53;52.76;94951.91;5030881;28;20219;-65
2024/01/13 04:04:05;;;;;;;22.57;11.83;;;;;;;3.51;52.75;94946.16;5030858;28;20200;-65
2024/01/13 04:06:33;;;;;;;17.13;11.77;;;;;;;3.51;52.69;94946.16;5030412;28;20191;-64
2024/01/13 04:09:00;;;;;;;20.73;12.43;;;;;;;3.42;52.82;94938.28;5030662;28;20341;-64
2024/01/13 04:11:27;;;;;;;19.40;12.07;;;;;;;3.47;52.82;94952.28;5030458;28;20195;-64
2024/01/13 04:13:54;;;;;;;16.63;11.60;;;;;;;3.47;52.68;94951.47;5030524;28;20195;-67
2024/01/13 04:16:20;;;;;;;20.97;12.50;;;;;;;3.44;52.78;94947.41;5030280;28;20599;-66
2024/01/13 04:18:47;;;;;;;18.43;12.00;;;;;;;3.25;52.72;94919.03;5030472;28;20219;-63
2024/01/13 04:21:14;;;;;;;20.40;13.53;;;;;;;3.43;52.80;94960.13;5030829;28;20187;-64
2024/01/13 04:23:42;;;;;;;19.87;12.53;;;;;;;3.40;52.78;94957.78;5030157;28;20199;-62
2024/01/13 04:26:09;;;;;;;19.67;11.87;;;;;;;3.40;52.86;94963.63;5030561;28;20184;-65
2024/01/13 04:28:36;;;;;;;20.87;12.23;;;;;;;3.30;52.92;94964.25;5030015;28;20219;-64
2024/01/13 04:31:04;;;;;;;19.87;12.47;;;;;;;3.37;52.96;94986.59;5030216;28;20640;-64
2024/01/13 04:33:31;;;;;;;19.20;12.27;;;;;;;3.33;52.71;94985.13;5030498;28;20203;-62
2024/01/13 04:35:58;;;;;;;18.37;12.00;;;;;;;3.05;52.68;94945.41;5030252;28;20199;-61
2024/01/13 04:38:25;;;;;;;18.60;12.37;;;;;;;3.30;52.73;94994.59;5030235;28;20191;-64
2024/01/13 04:40:53;;;;;;;19.90;12.77;;;;;;;3.26;52.71;94988.88;5030192;28;20735;-65
2024/01/13 04:43:19;;;;;;;20.43;13.00;;;;;;;3.06;52.69;94962.19;5030388;28;20615;-61
2024/01/13 04:45:46;;;;;;;19.30;11.27;;;;;;;3.26;52.79;94997.28;5030010;28;20202;-64
2024/01/13 04:48:15;;;;;;;20.90;12.50;;;;;;;3.27;52.58;95000.63;5030140;28;20220;-63
2024/01/13 04:50:42;;;;;;;18.63;12.00;;;;;;;3.23;52.63;94989.06;5030430;28;20184;-64
2024/01/13 04:53:09;;;;;;;20.23;12.33;;;;;;;3.09;52.46;94968.81;5030282;28;20198;-62
2024/01/13 04:55:36;;;;;;;20.20;11.40;;;;;;;3.27;52.56;95001.44;5029558;28;20706;-63
2024/01/13 04:58:04;;;;;;;18.33;12.37;;;;;;;3.27;52.47;94998.91;5028834;28;20202;-64
2024/01/13 05:00:33;;;;;;;18.57;12.40;;;;;;;3.27;52.43;94998.09;5029416;28;20706;-65
2024/01/13 05:03:01;;;;;;;19.73;11.73;;;;;;;3.27;52.39;94993.03;5030059;28;20187;-63
2024/01/13 05:05:27;;;;;;;17.67;11.40;;;;;;;3.26;52.31;94994.75;5029915;28;20184;-62
2024/01/13 05:07:55;;;;;;;19.17;11.73;;;;;;;3.27;52.21;94995.56;5029622;28;20200;-63
2024/01/13 05:10:21;;;;;;;18.67;11.93;;;;;;;3.26;52.30;94989.69;5029722;28;20623;-64
2024/01/13 05:12:48;;;;;;;19.37;11.37;;;;;;;3.19;52.17;94974.97;5030242;28;20566;-62
2024/01/13 05:15:16;;;;;;;16.90;11.03;;;;;;;3.21;52.12;94968.94;5029454;28;20196;-62
2024/01/13 05:17:43;;;;;;;19.03;10.73;;;;;;;3.23;52.11;94969.66;5029575;28;20180;-66
2024/01/13 05:20:11;;;;;;;15.73;11.20;;;;;;;3.22;52.17;94968.03;5029203;28;20184;-63
2024/01/13 05:22:38;;;;;;;18.20;11.10;;;;;;;3.21;52.25;94966.41;5029806;28;20187;-64
2024/01/13 05:25:05;;;;;;;17.07;10.80;;;;;;;3.20;52.25;94958.91;5028913;28;20623;-65
2024/01/13 05:27:32;;;;;;;15.50;10.33;;;;;;;3.19;52.14;94957.28;5029576;28;20203;-63
2024/01/13 05:29:59;;;;;;;18.37;10.47;;;;;;;3.16;52.56;94953.22;5029357;28;20223;-64
2024/01/13 05:32:27;;;;;;;19.13;10.33;;;;;;;3.08;51.97;94941.91;5029040;28;20192;-65
2024/01/13 05:34:54;;;;;;;17.60;10.63;;;;;;;3.12;52.17;94944.19;5029740;28;20188;-66
2024/01/13 05:37:20;;;;;;;16.90;10.83;;;;;;;3.09;52.12;94949.41;5029794;28;20634;-67
2024/01/13 05:39:47;;;;;;;15.63;10.27;;;;;;;3.06;52.08;94946.22;5029114;28;20200;-63
2024/01/13 05:42:14;;;;;;;15.27;10.07;;;;;;;3.03;52.03;94952.28;5029165;28;20195;-66
2024/01/13 05:44:41;;;;;;;14.23;9.17;;;;;;;2.80;52.13;94924.94;5029019;28;20195;-67
2024/01/13 05:47:09;;;;;;;18.50;11.07;;;;;;;2.98;52.10;94965.19;5029344;28;20196;-64
2024/01/13 05:49:37;;;;;;;18.37;10.30;;;;;;;2.96;52.04;94973.72;5029598;28;20215;-66
2024/01/13 05:52:04;;;;;;;18.90;10.33;;;;;;;2.90;52.07;94974.06;5029070;28;20188;-66
2024/01/13 05:54:31;;;;;;;15.60;10.30;;;;;;;2.94;52.08;94976.34;5028878;28;20191;-66
2024/01/13 05:56:58;;;;;;;15.13;9.00;;;;;;;2.91;52.20;94978.22;5029339;28;20187;-68
2024/01/13 05:59:24;;;;;;;15.77;9.47;;;;;;;2.93;52.19;94987.31;5028800;28;20228;-63
2024/01/13 06:01:51;;;;;;;19.17;10.80;;;;;;;2.90;52.14;94974.06;5012891;28;20192;-66
2024/01/13 06:04:18;;;;;;;13.87;9.47;;;;;;;2.93;52.28;94982.28;5009469;28;20185;-61
2024/01/13 06:06:46;;;;;;;15.53;10.67;;;;;;;2.90;52.34;94976.59;5009432;28;20291;-64
2024/01/13 06:09:13;;;;;;;17.93;10.17;;;;;;;2.94;52.12;94975.53;5011102;28;20282;-66
2024/01/13 06:11:41;;;;;;;18.37;10.60;;;;;;;2.92;52.00;94972.25;5013238;28;20196;-64
2024/01/13 06:14:07;;;;;;;16.73;10.77;;;;;;;2.96;51.97;94978.78;5012088;28;20223;-65
2024/01/13 06:16:34;;;;;;;15.33;10.00;;;;;;;2.97;51.97;94962.72;5013211;28;20185;-62
2024/01/13 06:19:02;;;;;;;15.30;10.03;;;;;;;2.98;52.07;94975.28;5012807;28;20196;-67
2024/01/13 06:21:29;;;;;;;17.33;10.47;;;;;;;2.98;52.09;94980.34;5012679;28;20192;-61
2024/01/13 06:23:58;;;;;;;17.33;9.70;;;;;;;2.96;52.00;94976.25;5014326;28;20614;-66
2024/01/13 06:26:25;;;;;;;16.73;10.17;;;;;;;3.00;51.88;94970.13;5020937;28;20223;-64
2024/01/13 06:28:52;;;;;;;18.67;9.60;;;;;;;3.08;51.94;94992.44;5026219;28;20208;-65
2024/01/13 06:31:19;;;;;;;16.33;10.20;;;;;;;3.13;51.98;94978.66;5013497;28;20193;-68
2024/01/13 06:33:46;;;;;;;18.07;10.63;;;;;;;3.12;51.78;94954.28;5012385;28;20200;-65
2024/01/13 06:36:13;;;;;;;17.47;9.83;;;;;;;3.32;51.57;94964.97;5012675;28;20277;-65
2024/01/13 06:38:39;;;;;;;16.43;9.93;;;;;;;3.37;51.47;94960.47;5012425;28;20227;-62
2024/01/13 06:41:08;;;;;;;16.10;10.33;;;;;;;3.56;51.40;94967.81;5012184;28;20192;-64
2024/01/13 06:43:34;;;;;;;16.47;10.30;;;;;;;3.62;51.43;94960.69;5012068;28;20654;-62
2024/01/13 06:46:01;;;;;;;16.33;10.57;;;;;;;3.67;51.42;94956.19;5011689;28;20200;-69
2024/01/13 06:48:28;;;;;;;18.90;11.37;;;;;;;3.91;51.21;94970.81;5012065;28;20235;-68
2024/01/13 06:50:55;;;;;;;12.80;9.30;;;;;;;4.16;50.76;94987.91;5011718;28;20584;-65
2024/01/13 06:53:21;;;;;;;16.00;9.67;;;;;;;4.37;50.44;94993.38;5030085;28;20192;-64
2024/01/13 06:55:48;;;;;;;17.03;10.63;;;;;;;4.51;50.41;94986.56;5031813;28;20226;-67
2024/01/13 06:58:16;;;;;;;14.17;10.17;;;;;;;4.72;50.01;94998.81;5031736;28;20195;-64
2024/01/13 07:00:43;;;;;;;15.50;9.73;;;;;;;4.80;50.30;94996.63;5020570;28;20715;-67
2024/01/13 07:03:10;;;;;;;13.03;9.27;;;;;;;4.85;50.10;95004.75;5012655;28;20180;-67
2024/01/13 07:05:37;;;;;;;17.73;9.80;;;;;;;4.92;50.22;95006.00;5011496;28;20181;-62
2024/01/13 07:08:06;;;;;;;15.33;9.97;;;;;;;4.75;50.25;94973.31;5012287;28;20189;-69
2024/01/13 07:10:34;;;;;;;12.97;8.07;;;;;;;5.38;73.16;95009.88;5014912;28;20306;-65
2024/01/13 07:13:01;;;;;;;14.00;9.10;;;;;;;5.65;70.28;94994.59;5029297;28;20231;-66
2024/01/13 07:15:29;;;;;;;14.50;8.63;;;;;;;5.93;66.65;95009.66;5028365;28;20196;-63
2024/01/13 07:17:58;;;;;;;17.17;9.00;;;;;;;5.94;63.54;95010.47;5009134;28;20192;-63
2024/01/13 07:20:26;;;;;;;15.27;9.60;;;;;;;5.92;61.63;95014.84;5008215;28;20592;-69
2024/01/13 07:22:52;;;;;;;12.37;8.83;;;;;;;5.88;60.21;95010.88;5008665;28;20200;-66
2024/01/13 07:25:19;;;;;;;10.33;7.73;;;;;;;5.84;59.02;95019.59;5008332;28;20211;-64
2024/01/13 07:27:46;;;;;;;15.17;10.00;;;;;;;5.79;58.30;95027.50;5010312;28;20203;-66
2024/01/13 07:30:14;;;;;;;12.87;9.13;;;;;;;5.75;57.34;95021.00;5009070;28;20707;-62
2024/01/13 07:32:42;;;;;;;15.20;10.03;;;;;;;5.49;56.77;94989.72;5009498;28;20220;-67
2024/01/13 07:35:10;;;;;;;16.17;10.03;;;;;;;5.68;56.21;95025.66;5009562;28;20200;-64
2024/01/13 07:37:36;;;;;;;16.23;10.27;;;;;;;5.48;55.71;94998.22;5013618;28;21045;-62
2024/01/13 07:40:03;;;;;;;14.07;9.27;;;;;;;5.48;55.26;94999.06;5009449;28;20583;-61
2024/01/13 07:42:31;;;;;;;14.47;9.53;;;;;;;5.58;54.93;95021.28;5011284;28;20203;-63
2024/01/13 07:44:57;;;;;;;13.60;9.73;;;;;;;5.53;54.60;95024.94;5009164;28;20192;-63
2024/01/13 07:47:24;;;;;;;14.80;10.37;;;;;;;5.51;54.20;95018.31;5008476;28;20287;-61
2024/01/13 07:49:52;;;;;;;14.60;9.83;;;;;;;5.41;54.29;95007.16;5008628;28;20614;-62
2024/01/13 07:52:19;;;;;;;16.40;10.00;;;;;;;5.47;53.85;95021.97;5008725;28;20259;-61
2024/01/13 07:54:46;;;;;;;14.90;10.10;;;;;;;5.45;53.45;95023.81;5007702;28;20228;-64
2024/01/13 07:57:14;;;;;;;15.07;10.37;;;;;;;5.42;53.67;95021.44;5008340;28;20189;-63
2024/01/13 07:59:41;;;;;;;17.33;11.23;;;;;;;5.41;53.35;95023.19;5017556;28;20243;-62
2024/01/13 08:02:07;;;;;;;17.20;10.83;;;;;;;5.43;53.41;95023.88;5027797;28;20183;-61
2024/01/13 08:04:34;;;;;;;16.60;10.70;;;;;;;5.46;52.86;95027.97;5028438;28;20195;-61
2024/01/13 08:07:02;;;;;;;17.70;10.57;;;;;;;5.50;52.71;95022.59;5029376;28;20195;-64
2024/01/13 08:09:29;;;;;;;17.00;11.70;;;;;;;5.18;52.54;94953.66;5035364;28;20219;-60
2024/01/13 08:11:56;;;;;;;15.40;9.97;;;;;;;5.58;52.25;94995.91;5027821;28;20191;-67
2024/01/13 08:14:23;;;;;;;14.17;10.43;;;;;;;6.01;51.83;95009.97;5027662;28;20246;-69
2024/01/13 08:16:49;;;;;;;17.53;10.60;;;;;;;6.35;51.29;95015.34;5026891;28;20323;-67
2024/01/13 08:19:16;;;;;;;14.27;9.67;;;;;;;6.52;50.96;95012.44;5027928;28;20203;-65
2024/01/13 08:21:43;;;;;;;13.40;9.63;;;;;;;6.69;51.12;95016.38;5026940;28;20191;-67
2024/01/13 08:24:11;;;;;;;18.30;10.90;;;;;;;6.79;50.76;95014.81;5027556;28;20202;-65
2024/01/13 08:26:39;;;;;;;14.77;9.47;;;;;;;6.75;50.53;94997.34;5027681;28;20199;-66
2024/01/13 08:29:08;;;;;;;16.03;11.10;;;;;;;6.97;50.66;95022.06;5019888;28;20598;-63
2024/01/13 08:31:35;;;;;;;15.70;10.43;;;;;;;6.62;50.49;94950.84;5027345;28;20195;-68
2024/01/13 08:34:02;;;;;;;14.23;9.47;;;;;;;7.22;50.14;95016.06;5027440;28;20651;-66
2024/01/13 08:36:28;;;;;;;12.10;9.00;;;;;;;7.35;50.13;95013.47;5026923;28;20192;-62
2024/01/13 08:38:55;;;;;;;15.03;9.20;;;;;;;7.46;49.76;95009.19;5027302;28;20730;-61
2024/01/13 08:41:23;;;;;;;13.87;10.30;;;;;;;7.58;49.58;95001.59;5026900;28;20198;-64
2024/01/13 08:43:50;;;;;;;15.40;9.53;;;;;;;7.63;49.27;94995.25;5027501;28;20194;-64
2024/01/13 08:46:17;;;;;;;12.70;9.77;;;;;;;7.84;49.25;95005.59;5027146;28;20200;-62
2024/01/13 08:48:43;;;;;;;15.60;9.27;;;;;;;7.97;49.11;95010.59;5027081;28;20199;-67
2024/01/13 08:51:10;;;;;;;12.73;8.93;;;;;;;8.00;48.79;94992.53;5027561;28;20219;-62
2024/01/13 08:53:37;;;;;;;11.43;7.80;;;;;;;7.98;48.79;94972.25;5029032;28;20188;-62
2024/01/13 08:56:04;;;;;;;13.87;9.03;;;;;;;8.15;48.63;94980.38;5028369;28;20215;-61
2024/01/13 08:58:32;;;;;;;14.30;7.90;;;;;;;7.92;48.44;94926.91;5037076;28;20195;-62
2024/01/13 09:00:59;;;;;;;13.47;9.13;;;;;;;8.32;48.34;94971.47;5018452;28;20243;-65
2024/01/13 09:03:28;;;;;;;13.40;9.07;;;;;;;8.43;48.04;94963.84;5017978;28;20223;-63
2024/01/13 09:05:55;;;;;;;13.10;8.43;;;;;;;8.55;47.94;94968.00;5019865;28;20184;-66
2024/01/13 09:08:22;;;;;;;11.70;8.03;;;;;;;8.60;48.01;94953.16;5024956;28;20629;-63
2024/01/13 09:10:48;;;;;;;10.63;8.60;;;;;;;8.71;47.90;94950.56;5025974;28;20637;-66
2024/01/13 09:13:15;;;;;;;14.03;8.93;;;;;;;8.77;47.67;94946.75;5017360;28;20180;-65
2024/01/13 09:15:43;;;;;;;9.70;8.00;;;;;;;8.29;47.54;94856.13;5017246;28;20199;-65
2024/01/13 09:18:10;;;;;;;12.30;8.77;;;;;;;8.97;47.40;94957.91;5018823;28;20183;-66
2024/01/13 09:20:37;;;;;;;10.97;8.17;;;;;;;9.02;47.13;94953.25;5019025;28;20191;-68
2024/01/13 09:23:04;;;;;;;10.90;8.43;;;;;;;9.11;47.16;94950.00;5019712;28;20203;-66
2024/01/13 09:25:31;;;;;;;10.57;8.37;;;;;;;9.18;46.79;94925.59;5012966;28;20199;-65
2024/01/13 09:27:58;;;;;;;10.63;7.80;;;;;;;9.36;46.75;94930.13;5008433;28;20270;-66
2024/01/13 09:30:25;;;;;;;11.30;8.37;;;;;;;9.42;46.52;94922.81;5006873;28;20230;-66
2024/01/13 09:32:53;;;;;;;9.80;7.83;;;;;;;9.48;46.28;94921.50;5006471;28;20254;-68
2024/01/13 09:35:20;;;;;;;11.33;8.70;;;;;;;9.54;46.11;94915.88;5007508;28;21018;-66
2024/01/13 09:37:46;;;;;;;12.77;8.90;;;;;;;9.53;46.13;94911.72;5007606;28;20660;-67
2024/01/13 09:40:15;;;;;;;12.90;8.33;;;;;;;9.53;45.83;94909.16;5007628;28;20193;-69
2024/01/13 09:42:50;;;;;;;9.60;8.00;;;;;;;9.53;45.63;94909.97;5007592;28;20703;-65
2024/01/13 09:45:18;;;;;;;10.63;8.07;;;;;;;9.38;45.36;94882.34;5011331;28;20267;-65
2024/01/13 09:47:46;;;;;;;11.57;7.63;;;;;;;9.55;45.42;94909.84;5010908;28;20192;-65
2024/01/13 09:50:14;;;;;;;11.43;8.40;;;;;;;9.57;45.45;94913.06;5010159;28;20334;-67
2024/01/13 09:52:44;;;;;;;10.23;7.63;;;;;;;9.57;45.55;94900.31;5011074;28;20200;-65
2024/01/13 09:55:15;;;;;;;10.73;7.77;;;;;;;9.51;45.20;94896.53;5010380;28;20200;-68
2024/01/13 09:57:43;;;;;;;12.87;7.97;;;;;;;9.51;45.16;94906.75;5013530;28;20201;-66
2024/01/13 10:00:12;;;;;;;10.77;7.07;;;;;;;9.30;45.50;94862.56;5024958;28;20258;-66
2024/01/13 10:02:40;;;;;;;12.83;7.40;;;;;;;9.49;45.14;94895.03;5032963;28;20188;-66
2024/01/13 10:05:07;;;;;;;8.87;7.27;;;;;;;9.48;45.11;94888.31;5032674;28;20199;-64
2024/01/13 10:07:40;;;;;;;11.27;8.10;;;;;;;9.31;45.25;94864.16;5032812;28;20191;-65
2024/01/13 10:10:08;;;;;;;10.83;8.30;;;;;;;9.46;45.30;94880.78;5032454;28;20705;-64
2024/01/13 10:12:35;;;;;;;9.27;7.30;;;;;;;9.46;45.20;94873.13;5032851;28;20196;-66
2024/01/13 10:15:12;;;;;;;11.40;7.63;;;;;;;9.24;44.95;94827.31;5032525;28;20191;-66
2024/01/13 10:17:40;;;;;;;9.37;7.30;;;;;;;9.46;44.94;94857.81;5032808;28;20188;-63
2024/01/13 10:20:12;;;;;;;11.13;8.10;;;;;;;9.32;44.89;94817.28;5032225;28;20184;-64
2024/01/13 10:22:42;;;;;;;17.07;7.63;;;;;;;9.50;44.68;94820.09;5032664;28;20648;-64
2024/01/13 10:25:09;;;;;;;12.17;7.90;;;;;;;9.58;44.46;94833.00;5032342;28;20196;-66
2024/01/13 10:27:38;;;;;;;11.10;8.27;;;;;;;9.68;44.37;94838.97;5032717;28;20195;-67
2024/01/13 10:30:07;;;;;;;9.53;7.87;;;;;;;9.74;44.38;94842.75;5032409;28;20261;-63
2024/01/13 10:32:34;;;;;;;9.60;7.47;;;;;;;9.73;44.28;94829.16;5032844;28;20267;-66
2024/01/13 10:35:00;;;;;;;9.47;7.67;;;;;;;9.69;44.30;94817.59;5032414;28;20686;-68
2024/01/13 10:37:27;;;;;;;10.27;7.83;;;;;;;9.82;44.19;94842.91;5032365;28;20269;-65
2024/01/13 10:39:56;;;;;;;10.03;7.77;;;;;;;9.75;44.26;94831.56;5032011;28;20659;-67
2024/01/13 10:42:26;;;;;;;9.00;7.07;;;;;;;9.79;44.11;94835.50;5031866;28;20180;-65
2024/01/13 10:44:56;;;;;;;8.27;7.30;;;;;;;9.78;43.99;94837.25;5032209;28;20751;-67
2024/01/13 10:47:29;;;;;;;9.87;8.10;;;;;;;9.80;43.97;94830.28;5029884;28;20282;-68
2024/01/13 10:49:58;;;;;;;11.33;8.83;;;;;;;9.81;43.97;94820.84;5029540;28;20251;-66
2024/01/13 10:52:30;;;;;;;9.87;7.63;;;;;;;9.95;43.96;94828.16;5029774;28;20304;-69
2024/01/13 10:55:03;;;;;;;10.73;7.43;;;;;;;9.96;43.99;94826.41;5029721;28;20270;-66
2024/01/13 10:57:31;;;;;;;11.13;7.80;;;;;;;9.90;43.75;94820.06;5028883;28;20199;-64
2024/01/13 11:00:00;;;;;;;10.37;7.80;;;;;;;10.01;43.95;94825.06;5029206;28;20233;-65
2024/01/13 11:02:32;;;;;;;10.43;7.70;;;;;;;10.09;43.82;94826.16;5029607;28;20214;-65
2024/01/13 11:05:03;;;;;;;10.30;7.50;;;;;;;10.15;43.68;94823.91;5029300;28;20662;-62
2024/01/13 11:07:30;;;;;;;9.27;7.37;;;;;;;10.18;43.82;94826.19;5029175;28;20298;-67
2024/01/13 11:10:02;;;;;;;9.07;7.63;;;;;;;10.24;43.73;94829.97;5029100;28;20223;-65
2024/01/13 11:12:44;;;;;;;9.77;7.57;;;;;;;10.33;43.54;94826.66;5029727;28;20296;-64
2024/01/13 11:15:17;;;;;;;8.27;7.13;;;;;;;10.34;43.62;94824.91;5028863;28;20199;-67
2024/01/13 11:17:46;;;;;;;9.57;7.40;;;;;;;10.05;43.50;94789.84;5029330;28;20202;-63
2024/01/13 11:20:13;;;;;;;8.53;6.67;;;;;;;10.22;43.47;94829.28;5028877;28;20202;-65
2024/01/13 11:22:40;;;;;;;10.20;7.20;;;;;;;10.18;43.52;94822.81;5028749;28;20211;-68
2024/01/13 11:25:24;;;;;;;11.93;7.17;;;;;;;10.17;43.52;94823.75;5029026;28;20180;-68
2024/01/13 11:27:54;;;;;;;9.20;7.27;;;;;;;10.13;43.48;94820.66;5040834;28;20230;-66
2024/01/13 11:30:30;;;;;;;10.47;7.93;;;;;;;10.20;43.35;94821.75;5042845;28;20266;-68